AirNav   Advertisement
 
 1464 users online  

24CT Bee Field Airport
Jewett City, Connecticut, USA


FAA INFORMATION EFFECTIVE 20 JULY 2017

Location

FAA Identifier: 24CT
Lat/Long: 41-34-00.7900N / 071-58-00.7800W
41-34.013167N / 071-58.013000W
41.5668861 / -71.9668833
(estimated)
Elevation: 280 ft. / 85 m (estimated)
Time zone: UTC -4 (UTC -5 during Standard Time)
Zip code: 06351

Airport Operations

Airport use: Private use. Permission required prior to landing
Activation date: 05/2007
Control tower: no
ARTCC: BOSTON CENTER
FSS: BRIDGEPORT FLIGHT SERVICE STATION
Attendance: UNATNDD
Segmented circle: no

Airport Communications

WX ASOS at IJD (14 nm NW): 133.675 (860-456-8839)
WX ASOS at GON (15 nm S): PHONE 860-449-8921
WX ASOS at WST (15 nm SE): 132.375 (401-596-9543)
WX AWOS-3 at LZD (15 nm N): 119.125 (860-779-7251)

Nearby radio navigation aids

VOR radial/distance  VOR name  Freq  Var
ORWr081/1.6NORWICH VOR/DME110.0014W
GONr029/14.7GROTON VOR/DME110.8514W
PUTr207/24.0PUTNAM VOR/DME117.4014W
PVDr263/25.9PROVIDENCE VOR/DME115.6014W
HFDr113/26.4HARTFORD VOR/DME114.9013W
SEYr339/29.7SANDY POINT VOR/DME117.8015W
MADr078/36.0MADISON VOR/DME110.4013W

Airport Services

Runway Information

Runway 1/19

Dimensions: 1700 x 50 ft. / 518 x 15 m
Surface: turf
RUNWAY 1  RUNWAY 19
Traffic pattern: leftleft

Airport Ownership and Management from official FAA records

Ownership: Privately-owned
Owner: WALTER H. HELD
100 BREWSTER RD.
JEWETT CITY, CT 06351
Phone 860-376-4265
Manager: WALTER H. HELD
100 BREWSTER RD.
JEWETT CITY, CT 06351
Phone 860-376-4265

Airport Operational Statistics

Aircraft based on the field: 1
Single engine airplanes: 1
    

Instrument Procedures

There are no published instrument procedures at 24CT.

Some nearby airports with instrument procedures:

KIJD - Windham Airport (14 nm NW)
KGON - Groton-New London Airport (15 nm S)
KWST - Westerly State Airport (15 nm SE)
KLZD - Danielson Airport (15 nm N)
0B8 - Elizabeth Field Airport (19 nm S)
 
Loc | Ops | Rwys | IFR | FBO | Links
Com | Nav | Svcs | Stats | Notes

Silver City Flying Club
 
Area around 24CT (Bee Field Airport)
 
Road maps at: MapQuest Bing Google
 
Aerial photo
No photo
 
Sectional chart

 
Airport distance calculator
Flying to Bee Field Airport? Find the distance to fly.

From to 24CT

Sunrise and sunset
Times for 26-Jul-2017
 Local
(UTC-4)
 Zulu
(UTC)
Morning civil twilight05:0609:06
Sunrise05:3809:38
Sunset20:1100:11
Evening civil twilight20:4300:43

Current date and time
Zulu (UTC)  26-Jul-2017 14:01:38
Local (UTC-4)  26-Jul-2017 10:01:38
 
METAR
KGON 
15nm S 
261356Z 01005KT 10SM CLR 23/15 A3024 RMK AO2 SLP240 T02280150
KIJD 
15nm NW 
261352Z AUTO 00000KT 10SM CLR 22/16 A3026 RMK AO2 SLP245 T02220156 $
KWST 
15nm SE 
261353Z AUTO 00000KT 10SM CLR 23/15 A3025 RMK AO2 SLP242 T02280150
KOQU 
25nm E 
261355Z 08004KT 15SM SKC 22/14 A3024
KPVD 
26nm E 
261351Z 03003KT 10SM FEW025 FEW300 22/15 A3025 RMK AO2 SLP241 T02220150 $
KSNC 
27nm SW 
261355Z AUTO 36007KT 310V050 10SM CLR 21/15 A3026 RMK AO2
TAF
KGON 
15nm S 
261133Z 2612/2712 01006KT P6SM SKC FM261700 16008KT P6SM FEW250 FM270000 19004KT P6SM FEW250 FM271000 22005KT P6SM BKN120
NOTAMs
Click for the latest NOTAMs
NOTAMs are issued by the DoD/FAA and will open in a separate window not controlled by AirNav.

 

 
 

Would you like to see your business listed on this page?

 If your business provides an interesting product or service to pilots, flight crews, aircraft, or users of the Bee Field Airport, you should consider listing it here.  To start the listing process, click on the button below
 
Add a business
 

Other Pages about Bee Field Airport

Update a link
 
Copyright © AirNav, LLC. All rights reserved. Privacy Policy  Contact